createdAt,value
2019-03-05T00:00:11.086Z,4.00
2019-03-05T00:01:10.923Z,4.00
2019-03-05T00:02:10.896Z,4.00
2019-03-05T00:03:10.863Z,4.00
2019-03-05T00:04:10.841Z,4.00
2019-03-05T00:05:10.818Z,4.00
2019-03-05T00:06:10.796Z,4.00
2019-03-05T00:07:10.768Z,4.00
2019-03-05T00:08:10.753Z,4.00
2019-03-05T00:09:10.736Z,4.00
2019-03-05T00:10:10.703Z,4.00
2019-03-05T00:11:10.674Z,4.00
2019-03-05T00:12:10.648Z,4.00
2019-03-05T00:13:10.625Z,4.00
2019-03-05T00:14:10.598Z,4.00
2019-03-05T00:15:10.573Z,4.00
2019-03-05T00:16:10.553Z,4.00
2019-03-05T00:17:10.525Z,4.00
2019-03-05T00:18:10.502Z,4.00
2019-03-05T00:19:10.477Z,4.00
2019-03-05T00:20:10.454Z,4.00
2019-03-05T00:21:10.429Z,4.00
2019-03-05T00:22:10.413Z,4.00
2019-03-05T00:23:10.384Z,4.00
2019-03-05T00:24:10.355Z,4.00
2019-03-05T00:25:10.345Z,4.00
2019-03-05T00:26:10.308Z,4.00
2019-03-05T00:27:10.285Z,4.00
2019-03-05T00:28:10.258Z,4.00
2019-03-05T00:29:10.236Z,4.00
2019-03-05T00:30:10.212Z,4.00
2019-03-05T00:31:10.187Z,4.00
2019-03-05T00:32:10.163Z,4.00
2019-03-05T00:33:10.139Z,4.00
2019-03-05T00:34:10.116Z,4.00
2019-03-05T00:35:10.092Z,4.00
2019-03-05T00:36:10.067Z,4.00
2019-03-05T00:37:10.042Z,4.00
2019-03-05T00:38:10.020Z,4.00
2019-03-05T00:39:09.993Z,4.00
2019-03-05T00:40:09.970Z,4.00
2019-03-05T00:41:09.943Z,4.00
2019-03-05T00:42:09.919Z,4.00
2019-03-05T00:43:09.893Z,4.00
2019-03-05T00:44:09.872Z,4.00
2019-03-05T00:45:09.849Z,4.00
2019-03-05T00:46:09.823Z,4.00
2019-03-05T00:47:09.799Z,4.00
2019-03-05T00:48:11.399Z,4.00
2019-03-05T00:49:09.749Z,4.00
2019-03-05T00:50:09.730Z,4.00
2019-03-05T00:51:09.735Z,4.00
2019-03-05T00:52:09.676Z,4.00
2019-03-05T00:53:09.651Z,4.00
2019-03-05T00:54:09.630Z,4.00
2019-03-05T00:55:09.612Z,4.00
2019-03-05T00:56:09.582Z,4.00
2019-03-05T00:57:09.561Z,4.00
2019-03-05T00:58:09.533Z,4.00
2019-03-05T00:59:09.505Z,4.00
2019-03-05T01:00:09.485Z,4.00
2019-03-05T01:01:09.559Z,4.00
2019-03-05T01:02:09.435Z,4.00
2019-03-05T01:03:09.411Z,4.00
2019-03-05T01:04:09.390Z,4.00
2019-03-05T01:05:09.360Z,4.00
2019-03-05T01:06:09.336Z,4.00
2019-03-05T01:07:09.311Z,4.00
2019-03-05T01:08:09.289Z,4.00
2019-03-05T01:09:09.273Z,4.00
2019-03-05T01:10:09.241Z,4.00
2019-03-05T01:11:09.216Z,4.00
2019-03-05T01:12:09.192Z,4.00
2019-03-05T01:13:09.168Z,4.00
2019-03-05T01:14:09.148Z,4.00
2019-03-05T01:15:09.119Z,4.00
2019-03-05T01:16:09.097Z,4.00
2019-03-05T01:17:09.070Z,4.00
2019-03-05T01:18:09.044Z,4.00
2019-03-05T01:19:09.021Z,4.00
2019-03-05T01:20:08.997Z,4.00
2019-03-05T01:21:08.973Z,4.00
2019-03-05T01:22:08.948Z,4.00
2019-03-05T01:23:08.922Z,4.00
2019-03-05T01:24:08.899Z,4.00
2019-03-05T01:25:08.875Z,4.00
2019-03-05T01:26:08.850Z,4.00
2019-03-05T01:27:08.825Z,4.00
2019-03-05T01:28:08.802Z,4.00
2019-03-05T01:29:08.777Z,4.00
2019-03-05T01:30:08.754Z,4.00
2019-03-05T01:31:08.730Z,4.00
2019-03-05T01:32:08.704Z,4.00
2019-03-05T01:33:08.681Z,4.00
2019-03-05T01:34:08.658Z,4.00
2019-03-05T01:35:08.648Z,4.00
2019-03-05T01:36:08.606Z,4.00
2019-03-05T01:37:08.590Z,4.00
2019-03-05T01:38:08.568Z,4.00
2019-03-05T01:39:08.536Z,4.00
2019-03-05T01:40:08.515Z,4.00
2019-03-05T01:41:08.495Z,4.00
2019-03-05T01:42:08.481Z,4.00
2019-03-05T01:43:08.436Z,4.00
2019-03-05T01:44:08.412Z,4.00
2019-03-05T01:45:08.410Z,4.00
2019-03-05T01:46:08.364Z,4.00
2019-03-05T01:47:08.348Z,4.00
2019-03-05T01:48:08.361Z,4.00
2019-03-05T01:49:08.299Z,4.00
2019-03-05T01:50:08.269Z,4.00
2019-03-05T01:51:08.243Z,4.00
2019-03-05T01:52:08.224Z,4.00
2019-03-05T01:53:08.195Z,4.00
2019-03-05T01:54:08.170Z,4.00
2019-03-05T01:55:08.144Z,4.00
2019-03-05T01:56:08.125Z,4.00
2019-03-05T01:57:08.113Z,4.00
2019-03-05T01:58:08.077Z,4.00
2019-03-05T01:59:08.049Z,4.00
2019-03-05T02:00:08.024Z,4.00
2019-03-05T02:01:07.999Z,4.00
2019-03-05T02:02:07.979Z,4.00
2019-03-05T02:03:07.950Z,4.00
2019-03-05T02:04:07.931Z,4.00
2019-03-05T02:05:07.901Z,4.00
2019-03-05T02:06:07.877Z,4.00
2019-03-05T02:07:07.852Z,4.00
2019-03-05T02:08:07.828Z,4.00
2019-03-05T02:09:07.803Z,4.00
2019-03-05T02:10:07.779Z,4.00
2019-03-05T02:11:07.753Z,4.00
2019-03-05T02:12:07.729Z,4.00
2019-03-05T02:13:07.707Z,4.00
2019-03-05T02:14:07.681Z,4.00
2019-03-05T02:15:07.655Z,4.00
2019-03-05T02:16:07.697Z,4.00
2019-03-05T02:17:07.613Z,4.00
2019-03-05T02:18:07.588Z,4.00
2019-03-05T02:19:07.559Z,4.00
2019-03-05T02:20:07.538Z,4.00
2019-03-05T02:21:07.509Z,4.00
2019-03-05T02:22:07.485Z,4.00
2019-03-05T02:23:07.462Z,4.00
2019-03-05T02:24:07.435Z,4.00
2019-03-05T02:25:07.411Z,4.00
2019-03-05T02:26:07.387Z,4.00
2019-03-05T02:27:07.371Z,4.00
2019-03-05T02:28:07.339Z,4.00
2019-03-05T02:29:07.322Z,4.00
2019-03-05T02:30:07.353Z,4.00
2019-03-05T02:31:07.277Z,4.00
2019-03-05T02:32:07.242Z,4.00
2019-03-05T02:33:07.220Z,4.00
2019-03-05T02:34:07.199Z,4.00
2019-03-05T02:35:07.169Z,4.00
2019-03-05T02:36:07.148Z,4.00
2019-03-05T02:37:07.129Z,4.00
2019-03-05T02:38:07.199Z,4.00
2019-03-05T02:39:07.089Z,4.00
2019-03-05T02:40:07.053Z,4.00
2019-03-05T02:41:07.029Z,4.00
2019-03-05T02:42:07.005Z,4.00
2019-03-05T02:43:06.975Z,4.00
2019-03-05T02:44:06.961Z,4.00
2019-03-05T02:45:06.931Z,4.00
2019-03-05T02:46:06.901Z,4.00
2019-03-05T02:47:06.878Z,4.00
2019-03-05T02:48:06.860Z,4.00
2019-03-05T02:49:07.004Z,4.00
2019-03-05T02:50:06.804Z,4.00
2019-03-05T02:51:06.778Z,4.00
2019-03-05T02:52:06.755Z,4.00
2019-03-05T02:53:06.731Z,4.00
2019-03-05T02:54:06.721Z,4.00
2019-03-05T02:55:06.681Z,4.00
2019-03-05T02:56:06.662Z,4.00
2019-03-05T02:57:06.632Z,4.00
2019-03-05T02:58:06.607Z,4.00
2019-03-05T02:59:06.581Z,4.00
2019-03-05T03:00:06.562Z,4.00
2019-03-05T03:01:06.538Z,4.00
2019-03-05T03:02:06.511Z,4.00
2019-03-05T03:03:06.499Z,4.00
2019-03-05T03:04:06.461Z,4.00
2019-03-05T03:05:06.439Z,4.00
2019-03-05T03:06:06.413Z,4.00
2019-03-05T03:07:06.388Z,4.00
2019-03-05T03:08:06.367Z,4.00
2019-03-05T03:09:06.344Z,4.00
2019-03-05T03:10:06.319Z,4.00
2019-03-05T03:11:06.441Z,4.00
2019-03-05T03:12:06.275Z,4.00
2019-03-05T03:13:06.249Z,4.00
2019-03-05T03:14:06.218Z,4.00
2019-03-05T03:15:06.194Z,4.00
2019-03-05T03:16:06.173Z,4.00
2019-03-05T03:17:06.186Z,4.00
2019-03-05T03:18:06.121Z,4.00
2019-03-05T03:19:06.103Z,4.00
2019-03-05T03:20:06.069Z,4.00
2019-03-05T03:21:06.057Z,4.00
2019-03-05T03:22:06.036Z,4.00
2019-03-05T03:23:06.001Z,4.00
2019-03-05T03:24:05.972Z,4.00
2019-03-05T03:25:05.948Z,4.00
2019-03-05T03:26:05.933Z,4.00
2019-03-05T03:27:06.012Z,4.00
2019-03-05T03:28:05.885Z,4.00
2019-03-05T03:29:05.850Z,4.00
2019-03-05T03:30:05.825Z,4.00
2019-03-05T03:31:05.803Z,4.00
2019-03-05T03:32:05.784Z,4.00
2019-03-05T03:33:05.769Z,4.00
2019-03-05T03:34:05.726Z,4.00
2019-03-05T03:35:05.706Z,4.00
2019-03-05T03:36:05.678Z,4.00
2019-03-05T03:37:05.665Z,4.00
2019-03-05T03:38:05.627Z,4.00
2019-03-05T03:39:05.605Z,4.00
2019-03-05T03:40:06.226Z,4.00
2019-03-05T03:41:05.563Z,4.00
2019-03-05T03:42:05.537Z,4.00
2019-03-05T03:43:05.507Z,4.00
2019-03-05T03:44:05.491Z,4.00
2019-03-05T03:45:05.455Z,4.00
2019-03-05T03:46:05.429Z,4.00
2019-03-05T03:47:05.405Z,4.00
2019-03-05T03:48:05.378Z,4.00
2019-03-05T03:49:05.361Z,4.00
2019-03-05T03:50:05.330Z,4.00
2019-03-05T03:51:05.305Z,4.00
2019-03-05T03:52:05.280Z,4.00
2019-03-05T03:53:05.259Z,4.00
2019-03-05T03:54:05.238Z,4.00
2019-03-05T03:55:05.204Z,4.00
2019-03-05T03:56:05.183Z,4.00
2019-03-05T03:57:05.154Z,4.00
2019-03-05T03:58:05.149Z,4.00
2019-03-05T03:59:05.104Z,4.00
2019-03-05T04:00:05.092Z,4.00
2019-03-05T04:01:07.025Z,4.00
2019-03-05T04:02:05.030Z,4.00
2019-03-05T04:03:05.005Z,4.00
2019-03-05T04:04:04.979Z,4.00
2019-03-05T04:05:04.954Z,4.00
2019-03-05T04:06:04.940Z,4.00
2019-03-05T04:07:04.907Z,4.00
2019-03-05T04:08:04.882Z,4.00
2019-03-05T04:09:04.985Z,4.00
2019-03-05T04:10:04.831Z,4.00
2019-03-05T04:11:04.811Z,4.00
2019-03-05T04:12:04.781Z,4.00
2019-03-05T04:13:04.755Z,4.00
2019-03-05T04:14:04.728Z,4.00
2019-03-05T04:15:04.716Z,4.00
2019-03-05T04:16:04.685Z,4.00
2019-03-05T04:17:04.654Z,4.00
2019-03-05T04:18:04.630Z,4.00
2019-03-05T04:19:04.609Z,4.00
2019-03-05T04:20:04.585Z,4.00
2019-03-05T04:21:04.559Z,4.00
2019-03-05T04:22:04.533Z,4.00
2019-03-05T04:23:04.605Z,4.00
2019-03-05T04:24:04.489Z,4.00
2019-03-05T04:25:04.455Z,4.00
2019-03-05T04:26:04.434Z,4.00
2019-03-05T04:27:04.407Z,4.00
2019-03-05T04:28:04.388Z,4.00
2019-03-05T04:29:04.355Z,4.00
2019-03-05T04:30:04.329Z,4.00
2019-03-05T04:31:04.310Z,4.00
2019-03-05T04:32:04.280Z,4.00
2019-03-05T04:33:04.267Z,4.00
2019-03-05T04:34:04.237Z,4.00
2019-03-05T04:35:04.202Z,4.00
2019-03-05T04:36:04.176Z,4.00
2019-03-05T04:37:04.152Z,4.00
2019-03-05T04:38:04.133Z,4.00
2019-03-05T04:39:04.102Z,4.00
2019-03-05T04:40:04.079Z,4.00
2019-03-05T04:41:04.053Z,4.00
2019-03-05T04:42:04.027Z,4.00
2019-03-05T04:43:04.002Z,4.00
2019-03-05T04:44:03.976Z,4.00
2019-03-05T04:45:03.951Z,4.00
2019-03-05T04:46:03.927Z,4.00
2019-03-05T04:47:03.909Z,4.00
2019-03-05T04:48:03.885Z,4.00
2019-03-05T04:49:03.852Z,4.00
2019-03-05T04:50:03.831Z,4.00
2019-03-05T04:51:03.801Z,4.00
2019-03-05T04:52:03.777Z,4.00
2019-03-05T04:53:03.761Z,4.00
2019-03-05T04:54:03.728Z,4.00
2019-03-05T04:55:03.702Z,4.00
2019-03-05T04:56:03.678Z,4.00
2019-03-05T04:57:03.655Z,4.00
2019-03-05T04:58:03.632Z,4.00
2019-03-05T04:59:03.601Z,4.00
2019-03-05T05:00:03.577Z,4.00
2019-03-05T05:01:03.552Z,4.00
2019-03-05T05:02:03.529Z,4.00
2019-03-05T05:03:03.504Z,4.00
2019-03-05T05:04:03.478Z,4.00
2019-03-05T05:05:03.454Z,4.00
2019-03-05T05:06:03.429Z,4.00
2019-03-05T05:07:03.413Z,4.00
2019-03-05T05:08:03.379Z,4.00
2019-03-05T05:09:03.368Z,4.00
2019-03-05T05:10:03.330Z,4.00
2019-03-05T05:11:03.307Z,4.00
2019-03-05T05:12:03.284Z,4.00
2019-03-05T05:13:03.255Z,4.00
2019-03-05T05:14:03.230Z,4.00
2019-03-05T05:15:03.211Z,4.00
2019-03-05T05:16:03.183Z,4.00
2019-03-05T05:17:03.163Z,4.00
2019-03-05T05:18:03.133Z,4.00
2019-03-05T05:19:03.104Z,4.00
2019-03-05T05:20:03.081Z,4.00
2019-03-05T05:21:03.057Z,4.00
2019-03-05T05:22:03.032Z,4.00
2019-03-05T05:23:03.002Z,4.00
2019-03-05T05:24:02.981Z,4.00
2019-03-05T05:25:02.957Z,4.00
2019-03-05T05:26:02.961Z,4.00
2019-03-05T05:27:02.905Z,4.00
2019-03-05T05:28:02.885Z,4.00
2019-03-05T05:29:02.864Z,4.00
2019-03-05T05:30:02.833Z,4.00
2019-03-05T05:31:02.806Z,4.00
2019-03-05T05:32:02.783Z,4.00
2019-03-05T05:33:02.756Z,4.00
2019-03-05T05:34:02.733Z,4.00
2019-03-05T05:35:02.705Z,4.00
2019-03-05T05:36:02.688Z,4.00
2019-03-05T05:37:02.662Z,4.00
2019-03-05T05:38:02.643Z,4.00
2019-03-05T05:39:02.604Z,4.00
2019-03-05T05:40:04.717Z,4.00
2019-03-05T05:41:02.557Z,4.00
2019-03-05T05:42:02.532Z,8.00
2019-03-05T05:43:02.507Z,8.00
2019-03-05T05:44:02.482Z,8.00
2019-03-05T05:45:02.457Z,8.00
2019-03-05T05:46:02.434Z,8.00
2019-03-05T05:47:02.406Z,12.00
2019-03-05T05:48:02.382Z,12.00
2019-03-05T05:49:02.357Z,12.00
2019-03-05T05:50:02.342Z,8.00
2019-03-05T05:51:02.308Z,12.00
2019-03-05T05:52:02.282Z,16.00
2019-03-05T05:53:02.260Z,24.00
2019-03-05T05:54:02.233Z,28.00
2019-03-05T05:55:02.209Z,28.00
2019-03-05T05:56:02.186Z,36.00
2019-03-05T05:57:02.160Z,40.00
2019-03-05T05:58:02.136Z,44.00
2019-03-05T05:59:02.115Z,48.00
2019-03-05T06:00:02.089Z,48.00
2019-03-05T06:01:02.076Z,56.00
2019-03-05T06:02:02.038Z,72.00
2019-03-05T06:03:02.010Z,96.00
2019-03-05T06:04:01.990Z,124.00
2019-03-05T06:05:01.968Z,144.00
2019-03-05T06:06:01.986Z,152.00
2019-03-05T06:07:01.913Z,192.00
2019-03-05T06:08:01.886Z,216.00
2019-03-05T06:09:01.864Z,240.00
2019-03-05T06:10:01.835Z,256.00
2019-03-05T06:11:01.811Z,260.00
2019-03-05T06:12:01.785Z,320.00
2019-03-05T06:13:01.763Z,376.00
2019-03-05T06:14:01.738Z,408.00
2019-03-05T06:15:01.710Z,424.00
2019-03-05T06:16:01.689Z,324.00
2019-03-05T06:17:01.661Z,244.00
2019-03-05T06:18:01.637Z,192.00
2019-03-05T06:19:01.610Z,120.00
2019-03-05T06:20:01.587Z,80.00
2019-03-05T06:21:01.562Z,64.00
2019-03-05T06:22:01.538Z,68.00
2019-03-05T06:23:01.512Z,64.00
2019-03-05T06:24:01.486Z,84.00
2019-03-05T06:25:01.463Z,100.00
2019-03-05T06:26:01.439Z,104.00
2019-03-05T06:27:01.411Z,148.00
2019-03-05T06:28:01.395Z,128.00
2019-03-05T06:29:01.364Z,112.00
2019-03-05T06:30:01.337Z,140.00
2019-03-05T06:31:01.328Z,280.00
2019-03-05T06:32:01.290Z,316.00
2019-03-05T06:33:01.267Z,336.00
2019-03-05T06:34:01.236Z,228.00
2019-03-05T06:35:01.212Z,208.00
2019-03-05T06:36:01.185Z,224.00
2019-03-05T06:37:01.162Z,356.00
2019-03-05T06:38:01.148Z,424.00
2019-03-05T06:39:01.119Z,524.00
2019-03-05T06:40:01.096Z,696.00
2019-03-05T06:41:01.062Z,580.00
2019-03-05T06:42:01.037Z,620.00
2019-03-05T06:43:01.011Z,804.00
2019-03-05T06:44:00.986Z,876.00
2019-03-05T06:45:00.962Z,716.00
2019-03-05T06:46:00.936Z,736.00
2019-03-05T06:47:00.912Z,848.00
2019-03-05T06:48:00.895Z,780.00
2019-03-05T06:49:00.866Z,864.00
2019-03-05T06:50:00.839Z,740.00
2019-03-05T06:51:00.818Z,608.00
2019-03-05T06:52:00.787Z,680.00
2019-03-05T06:53:00.762Z,864.00
2019-03-05T06:54:00.736Z,1516.00
2019-03-05T06:55:00.713Z,1800.00
2019-03-05T06:56:00.685Z,2112.00
2019-03-05T06:57:00.660Z,2292.00
2019-03-05T06:58:00.637Z,2592.00
2019-03-05T06:59:00.611Z,2788.00
2019-03-05T07:00:00.610Z,2888.00
2019-03-05T07:01:00.569Z,3052.00
2019-03-05T07:02:00.539Z,3044.00
2019-03-05T07:03:00.570Z,3092.00
2019-03-05T07:04:00.486Z,2764.00
2019-03-05T07:05:00.511Z,2048.00
2019-03-05T07:06:00.447Z,2128.00
2019-03-05T07:07:00.412Z,2448.00
2019-03-05T07:08:00.388Z,2436.00
2019-03-05T07:09:00.374Z,2420.00
2019-03-05T07:10:00.460Z,2468.00
2019-03-05T07:11:00.312Z,2536.00
2019-03-05T07:12:00.282Z,2456.00
2019-03-05T07:13:00.286Z,2668.00
2019-03-05T07:14:00.241Z,1532.00
2019-03-05T07:15:00.380Z,1100.00
2019-03-05T07:16:00.198Z,1164.00
2019-03-05T07:17:00.182Z,1116.00
2019-03-05T07:18:00.141Z,1392.00
2019-03-05T07:19:00.123Z,1496.00
2019-03-05T07:20:00.149Z,2036.00
2019-03-05T07:21:00.152Z,2704.00
2019-03-05T07:22:00.041Z,3092.00
2019-03-05T07:23:00.165Z,3284.00
2019-03-05T07:23:59.992Z,3120.00
2019-03-05T07:24:59.979Z,3992.00
2019-03-05T07:25:59.945Z,4316.00
2019-03-05T07:26:59.921Z,4196.00
2019-03-05T07:27:59.900Z,3904.00
2019-03-05T07:28:59.928Z,3916.00
2019-03-05T07:29:59.845Z,3880.00
2019-03-05T07:30:59.820Z,3724.00
2019-03-05T07:31:59.801Z,3768.00
2019-03-05T07:32:59.772Z,3988.00
2019-03-05T07:33:59.746Z,4336.00
2019-03-05T07:34:59.727Z,4512.00
2019-03-05T07:35:59.706Z,5456.00
2019-03-05T07:36:59.685Z,5176.00
2019-03-05T07:37:59.648Z,4844.00
2019-03-05T07:38:59.638Z,4512.00
2019-03-05T07:39:59.650Z,3852.00
2019-03-05T07:40:59.584Z,3508.00
2019-03-05T07:41:59.618Z,3312.00
2019-03-05T07:42:59.534Z,3336.00
2019-03-05T07:43:59.503Z,3272.00
2019-03-05T07:44:59.480Z,3320.00
2019-03-05T07:45:59.452Z,3264.00
2019-03-05T07:46:59.434Z,3232.00
2019-03-05T07:47:59.410Z,3316.00
2019-03-05T07:48:59.386Z,3488.00
2019-03-05T07:49:59.355Z,3704.00
2019-03-05T07:50:59.329Z,3872.00
2019-03-05T07:51:59.314Z,3908.00
2019-03-05T07:52:59.284Z,4056.00
2019-03-05T07:53:59.260Z,4948.00
2019-03-05T07:54:59.231Z,6452.00
2019-03-05T07:55:59.217Z,5784.00
2019-03-05T07:56:59.198Z,6316.00
2019-03-05T07:57:59.213Z,6852.00
2019-03-05T07:58:59.138Z,5864.00
2019-03-05T07:59:59.109Z,5512.00
2019-03-05T08:00:59.084Z,9192.00
2019-03-05T08:01:59.070Z,7812.00
2019-03-05T08:02:59.040Z,10296.00
2019-03-05T08:03:59.014Z,8616.00
2019-03-05T08:04:59.027Z,8728.00
2019-03-05T08:05:58.963Z,8228.00
2019-03-05T08:06:58.947Z,7988.00
2019-03-05T08:07:58.923Z,6804.00
2019-03-05T08:08:58.899Z,4608.00
2019-03-05T08:09:58.866Z,4920.00
2019-03-05T08:10:58.851Z,7096.00
2019-03-05T08:11:58.818Z,8232.00
2019-03-05T08:12:58.794Z,5548.00
2019-03-05T08:13:58.786Z,7620.00
2019-03-05T08:14:58.748Z,9096.00
2019-03-05T08:16:02.380Z,5352.00
2019-03-05T08:16:58.711Z,6984.00
2019-03-05T08:17:58.679Z,6444.00
2019-03-05T08:18:58.655Z,6784.00
2019-03-05T08:19:58.635Z,9144.00
2019-03-05T08:20:58.620Z,5716.00
2019-03-05T08:21:58.589Z,4792.00
2019-03-05T08:22:58.558Z,4940.00
2019-03-05T08:23:58.550Z,4252.00
2019-03-05T08:24:58.526Z,3424.00
2019-03-05T08:25:58.507Z,3208.00
2019-03-05T08:26:58.486Z,3356.00
2019-03-05T08:27:58.444Z,3328.00
2019-03-05T08:28:58.427Z,3508.00
2019-03-05T08:29:58.393Z,5464.00
2019-03-05T08:30:58.367Z,4188.00
2019-03-05T08:31:58.344Z,4024.00
2019-03-05T08:32:58.322Z,4288.00
2019-03-05T08:33:58.301Z,4564.00
2019-03-05T08:34:58.273Z,4888.00
2019-03-05T08:35:58.248Z,5712.00
2019-03-05T08:36:58.232Z,3040.00
2019-03-05T08:37:58.203Z,2780.00
2019-03-05T08:38:58.178Z,3984.00
2019-03-05T08:39:58.157Z,3212.00
2019-03-05T08:40:58.131Z,3156.00
2019-03-05T08:41:58.116Z,2956.00
2019-03-05T08:42:58.098Z,2808.00
2019-03-05T08:43:58.060Z,2568.00
2019-03-05T08:44:58.047Z,1848.00
2019-03-05T08:45:58.021Z,2824.00
2019-03-05T08:46:57.993Z,3880.00
2019-03-05T08:47:57.973Z,4036.00
2019-03-05T08:48:57.941Z,3988.00
2019-03-05T08:49:57.917Z,3972.00
2019-03-05T08:50:57.892Z,3928.00
2019-03-05T08:51:57.872Z,4440.00
2019-03-05T08:52:57.847Z,4792.00
2019-03-05T08:53:57.822Z,4556.00
2019-03-05T08:54:57.801Z,4604.00
2019-03-05T08:55:57.775Z,5208.00
2019-03-05T08:56:57.751Z,6260.00
2019-03-05T08:57:57.731Z,6508.00
2019-03-05T08:58:57.710Z,8792.00
2019-03-05T08:59:57.682Z,9696.00
2019-03-05T09:00:57.670Z,10968.00
2019-03-05T09:01:57.639Z,10268.00
2019-03-05T09:02:57.608Z,10040.00
2019-03-05T09:03:57.600Z,8584.00
2019-03-05T09:04:57.561Z,8276.00
2019-03-05T09:05:57.549Z,11036.00
2019-03-05T09:06:57.513Z,10732.00
2019-03-05T09:07:57.489Z,9116.00
2019-03-05T09:08:57.472Z,11168.00
2019-03-05T09:09:57.445Z,16408.00
2019-03-05T09:10:57.438Z,16276.00
2019-03-05T09:11:57.412Z,12976.00
2019-03-05T09:12:57.383Z,18144.00
2019-03-05T09:13:57.364Z,39040.00
2019-03-05T09:14:57.339Z,17376.00
2019-03-05T09:15:57.318Z,16172.00
2019-03-05T09:16:57.285Z,19328.00
2019-03-05T09:17:57.266Z,13156.00
2019-03-05T09:18:57.238Z,10712.00
2019-03-05T09:19:57.214Z,11052.00
2019-03-05T09:20:57.193Z,12176.00
2019-03-05T09:21:57.174Z,15132.00
2019-03-05T09:22:57.155Z,24288.00
2019-03-05T09:23:57.127Z,17888.00
2019-03-05T09:24:57.106Z,28544.00
2019-03-05T09:25:57.081Z,25696.00
2019-03-05T09:26:57.060Z,22880.00
2019-03-05T09:27:57.040Z,22016.00
2019-03-05T09:28:57.014Z,19616.00
2019-03-05T09:29:57.001Z,17568.00
2019-03-05T09:30:56.981Z,14108.00
2019-03-05T09:31:56.967Z,10356.00
2019-03-05T09:32:56.934Z,9524.00
2019-03-05T09:33:56.913Z,8520.00
2019-03-05T09:34:56.892Z,4964.00
2019-03-05T09:35:56.866Z,6144.00
2019-03-05T09:36:56.854Z,4908.00
2019-03-05T09:37:56.829Z,4472.00
2019-03-05T09:38:56.856Z,5240.00
2019-03-05T09:39:56.788Z,5472.00
2019-03-05T09:40:56.761Z,4348.00
2019-03-05T09:41:56.741Z,3872.00
2019-03-05T09:42:56.728Z,6300.00
2019-03-05T09:43:56.701Z,6648.00
2019-03-05T09:44:56.678Z,10372.00
2019-03-05T09:45:56.668Z,16960.00
2019-03-05T09:46:56.642Z,20608.00
2019-03-05T09:47:56.622Z,19168.00
2019-03-05T09:48:56.593Z,15568.00
2019-03-05T09:49:56.582Z,9896.00
2019-03-05T09:50:56.557Z,6660.00
2019-03-05T09:51:56.533Z,6436.00
2019-03-05T09:52:56.511Z,6460.00
2019-03-05T09:53:56.483Z,8728.00
2019-03-05T09:54:56.468Z,5660.00
2019-03-05T09:55:56.458Z,3576.00
2019-03-05T09:56:56.420Z,3472.00
2019-03-05T09:58:07.101Z,4692.00
2019-03-05T09:58:56.373Z,5020.00
2019-03-05T09:59:56.362Z,6152.00
2019-03-05T10:00:56.338Z,6596.00
2019-03-05T10:01:56.308Z,5720.00
2019-03-05T10:02:56.296Z,4016.00
2019-03-05T10:03:56.264Z,3768.00
2019-03-05T10:04:56.249Z,3152.00
2019-03-05T10:05:56.223Z,3980.00
2019-03-05T10:06:56.200Z,5472.00
2019-03-05T10:07:56.185Z,8240.00
2019-03-05T10:08:56.158Z,6484.00
2019-03-05T10:09:56.131Z,6840.00
2019-03-05T10:10:56.110Z,9588.00
2019-03-05T10:11:56.826Z,7256.00
2019-03-05T10:12:59.315Z,6172.00
2019-03-05T10:13:56.046Z,7680.00
2019-03-05T10:14:56.127Z,7236.00
2019-03-05T10:15:56.001Z,6012.00
2019-03-05T10:16:55.989Z,8876.00
2019-03-05T10:17:55.968Z,9340.00
2019-03-05T10:18:55.930Z,10364.00
2019-03-05T10:19:55.913Z,9940.00
2019-03-05T10:20:55.885Z,14112.00
2019-03-05T10:21:55.865Z,8820.00
2019-03-05T10:22:57.883Z,11528.00
2019-03-05T10:23:55.818Z,20320.00
2019-03-05T10:25:05.597Z,21536.00
2019-03-05T10:25:55.777Z,33632.00
2019-03-05T10:26:55.760Z,13328.00
2019-03-05T10:27:55.729Z,10180.00
2019-03-05T10:28:55.724Z,11844.00
2019-03-05T10:29:55.694Z,12248.00
2019-03-05T10:30:55.664Z,9872.00
2019-03-05T10:31:55.642Z,8184.00
2019-03-05T10:32:55.624Z,5768.00
2019-03-05T10:33:55.598Z,4800.00
2019-03-05T10:34:55.585Z,5700.00
2019-03-05T10:35:55.555Z,4880.00
2019-03-05T10:36:55.532Z,4580.00
2019-03-05T10:37:55.514Z,6232.00
2019-03-05T10:38:57.573Z,9168.00
2019-03-05T10:39:55.474Z,7864.00
2019-03-05T10:40:55.445Z,7824.00
2019-03-05T10:41:55.423Z,7164.00
2019-03-05T10:42:55.410Z,9724.00
2019-03-05T10:43:55.385Z,11500.00
2019-03-05T10:44:55.355Z,7308.00
2019-03-05T10:45:55.344Z,6996.00
2019-03-05T10:46:56.204Z,6904.00
2019-03-05T10:47:55.290Z,7788.00
2019-03-05T10:48:55.279Z,5972.00
2019-03-05T10:49:55.258Z,5824.00
2019-03-05T10:50:55.234Z,5740.00
2019-03-05T10:51:55.201Z,8656.00
2019-03-05T10:52:55.183Z,10692.00
2019-03-05T10:53:55.158Z,14568.00
2019-03-05T10:54:55.144Z,13396.00
2019-03-05T10:55:55.136Z,12008.00
2019-03-05T10:56:55.093Z,14048.00
2019-03-05T10:57:55.076Z,12600.00
2019-03-05T10:58:55.047Z,13224.00
2019-03-05T10:59:55.026Z,15332.00
2019-03-05T11:00:55.004Z,26176.00
2019-03-05T11:01:55.042Z,18048.00
2019-03-05T11:02:54.973Z,17248.00
2019-03-05T11:03:54.942Z,18272.00
2019-03-05T11:04:54.918Z,18880.00
2019-03-05T11:05:54.897Z,19840.00
2019-03-05T11:06:54.883Z,20768.00
2019-03-05T11:07:54.861Z,20256.00
2019-03-05T11:08:54.832Z,18784.00
2019-03-05T11:09:54.829Z,21632.00
2019-03-05T11:10:54.805Z,19328.00
2019-03-05T11:11:54.770Z,32256.00
2019-03-05T11:12:54.748Z,24384.00
2019-03-05T11:13:54.730Z,22816.00
2019-03-05T11:14:54.706Z,24320.00
2019-03-05T11:15:54.711Z,18400.00
2019-03-05T11:16:54.673Z,21472.00
2019-03-05T11:17:54.645Z,17696.00
2019-03-05T11:18:54.631Z,15132.00
2019-03-05T11:19:54.605Z,14524.00
2019-03-05T11:20:54.585Z,16424.00
2019-03-05T11:21:54.568Z,15648.00
2019-03-05T11:22:54.546Z,16404.00
2019-03-05T11:23:54.535Z,17312.00
2019-03-05T11:24:54.514Z,17088.00
2019-03-05T11:25:54.488Z,15760.00
2019-03-05T11:26:54.474Z,15944.00
2019-03-05T11:27:54.446Z,14500.00
2019-03-05T11:28:54.792Z,14892.00
2019-03-05T11:29:54.407Z,14508.00
2019-03-05T11:30:54.395Z,14716.00
2019-03-05T11:31:54.374Z,14656.00
2019-03-05T11:32:54.352Z,15064.00
2019-03-05T11:33:54.327Z,13336.00
2019-03-05T11:34:54.307Z,18176.00
2019-03-05T11:35:54.291Z,34752.00
2019-03-05T11:36:54.271Z,15908.00
2019-03-05T11:37:54.257Z,14528.00
2019-03-05T11:38:54.233Z,15264.00
2019-03-05T11:39:55.436Z,16864.00
2019-03-05T11:40:54.190Z,14556.00
2019-03-05T11:41:54.171Z,11316.00
2019-03-05T11:42:54.159Z,12460.00
2019-03-05T11:43:54.135Z,12016.00
2019-03-05T11:45:03.949Z,9508.00
2019-03-05T11:45:54.107Z,10712.00
2019-03-05T11:46:54.079Z,63776.00
2019-03-05T11:47:54.073Z,67360.00
2019-03-05T11:48:54.032Z,66016.00
2019-03-05T11:49:54.015Z,68384.00
2019-03-05T11:50:54.000Z,18432.00
2019-03-05T11:51:53.978Z,15676.00
2019-03-05T11:52:53.953Z,13576.00
2019-03-05T11:53:53.943Z,12740.00
2019-03-05T11:54:53.918Z,10812.00
2019-03-05T11:55:53.917Z,8868.00
2019-03-05T11:56:53.886Z,8140.00
2019-03-05T11:57:53.876Z,6840.00
2019-03-05T11:58:53.853Z,6036.00
2019-03-05T11:59:53.823Z,5028.00
2019-03-05T12:00:53.803Z,5368.00
2019-03-05T12:01:53.793Z,8316.00
2019-03-05T12:02:53.782Z,9236.00
2019-03-05T12:03:53.744Z,10364.00
2019-03-05T12:04:53.724Z,11244.00
2019-03-05T12:05:53.704Z,12304.00
2019-03-05T12:06:53.682Z,10696.00
2019-03-05T12:07:53.665Z,11732.00
2019-03-05T12:08:53.645Z,10820.00
2019-03-05T12:09:53.633Z,9696.00
2019-03-05T12:10:53.602Z,9568.00
2019-03-05T12:11:53.589Z,11320.00
2019-03-05T12:12:53.566Z,13124.00
2019-03-05T12:13:53.543Z,14736.00
2019-03-05T12:14:53.521Z,15476.00
2019-03-05T12:15:53.505Z,15528.00
2019-03-05T12:16:53.489Z,13996.00
2019-03-05T12:17:53.475Z,13692.00
2019-03-05T12:18:53.440Z,13532.00
2019-03-05T12:19:53.430Z,12876.00
2019-03-05T12:20:53.417Z,12568.00
2019-03-05T12:21:53.379Z,11676.00
2019-03-05T12:22:53.374Z,11524.00
2019-03-05T12:23:53.339Z,14608.00
2019-03-05T12:24:53.326Z,15372.00
2019-03-05T12:25:53.309Z,15172.00
2019-03-05T12:26:53.278Z,14056.00
2019-03-05T12:27:53.259Z,13516.00
2019-03-05T12:28:53.239Z,15852.00
2019-03-05T12:29:53.219Z,16316.00
2019-03-05T12:30:53.199Z,15632.00
2019-03-05T12:31:53.193Z,15428.00
2019-03-05T12:32:53.161Z,13304.00
2019-03-05T12:33:53.140Z,13460.00
2019-03-05T12:34:53.225Z,13260.00